Time;durP1;ratioP1;P1;durP2;ratioP2;P2;SDS_P1;SDS_P2;PMS_P1;PMS_P2;Temp;Humidity;BMP_temperature;BMP_pressure;BME280_temperature;BME280_humidity;BME280_pressure;Samples;Min_cycle;Max_cycle;Signal;HPM_P1;HPM_P2
2021/07/21 00:01:02;;;;;;;;;;;25.90;58.70;;;;;;5113872;28;20057;-61
2021/07/21 00:03:28;;;;;;;;;;;25.90;59.10;;;;;;5113006;28;20010;-62
2021/07/21 00:05:54;;;;;;;;;;;25.80;59.40;;;;;;5112671;28;20039;-61
2021/07/21 00:08:21;;;;;;;;;;;25.80;59.40;;;;;;5113477;28;20011;-61
2021/07/21 00:10:49;;;;;;;;;;;25.70;59.60;;;;;;5109335;28;19935;-61
2021/07/21 00:13:28;;;;;;;;;;;25.70;59.50;;;;;;5111201;28;19969;-61
2021/07/21 00:16:01;;;;;;;;;;;25.70;59.80;;;;;;5112927;28;19928;-61
2021/07/21 00:18:46;;;;;;;;;;;25.70;59.50;;;;;;5112272;28;19930;-62
2021/07/21 00:21:14;;;;;;;;;;;25.60;60.00;;;;;;5112921;28;19924;-61
2021/07/21 00:23:41;;;;;;;;;;;25.60;60.10;;;;;;5113337;28;19924;-61
2021/07/21 00:26:07;;;;;;;;;;;25.60;60.10;;;;;;5113104;28;19930;-61
2021/07/21 00:28:34;;;;;;;;;;;25.50;60.20;;;;;;5112896;28;19928;-61
2021/07/21 00:31:01;;;;;;;;;;;25.50;60.50;;;;;;5113373;28;19924;-62
2021/07/21 00:33:27;;;;;;;;;;;25.50;60.30;;;;;;5113118;28;19924;-61
2021/07/21 00:35:53;;;;;;;;;;;25.50;60.00;;;;;;5112646;28;20363;-61
2021/07/21 00:38:19;;;;;;;;;;;25.40;60.20;;;;;;5112556;28;20002;-61
2021/07/21 00:40:45;;;;;;;;;;;25.40;60.60;;;;;;5112937;28;20408;-61
2021/07/21 00:43:11;;;;;;;;;;;25.40;60.70;;;;;;5110933;28;20452;-62
2021/07/21 00:45:37;;;;;;;;;;;25.40;60.50;;;;;;5113076;28;19924;-61
2021/07/21 00:48:04;;;;;;;;;;;25.30;60.50;;;;;;5112481;28;19935;-62
2021/07/21 00:50:30;;;;;;;;;;;25.30;60.90;;;;;;5112515;28;20324;-61
2021/07/21 00:52:56;;;;;;;;;;;25.30;60.50;;;;;;5113081;28;19924;-61
2021/07/21 00:55:22;;;;;;;;;;;25.30;60.70;;;;;;5113422;28;19924;-61
2021/07/21 00:57:48;;;;;;;;;;;25.30;60.70;;;;;;5112886;28;19927;-61
2021/07/21 01:00:18;;;;;;;;;;;25.30;60.80;;;;;;5112504;28;19924;-61
2021/07/21 01:02:45;;;;;;;;;;;25.20;60.90;;;;;;5113009;28;19983;-62
2021/07/21 01:05:22;;;;;;;;;;;25.20;60.90;;;;;;5112914;28;20147;-61
2021/07/21 01:07:49;;;;;;;;;;;25.20;61.10;;;;;;5112678;28;20410;-61
2021/07/21 01:10:17;;;;;;;;;;;25.20;61.20;;;;;;5115994;28;19924;-61
2021/07/21 01:12:44;;;;;;;;;;;25.20;61.00;;;;;;5098056;28;19927;-61
2021/07/21 01:15:12;;;;;;;;;;;25.10;61.20;;;;;;5116555;28;20302;-61
2021/07/21 01:17:41;;;;;;;;;;;25.10;61.10;;;;;;5116384;28;20405;-61
2021/07/21 01:20:26;;;;;;;;;;;25.10;61.20;;;;;;5116539;28;19967;-61
2021/07/21 01:23:00;;;;;;;;;;;25.00;61.10;;;;;;5116434;28;19923;-61
2021/07/21 01:25:33;;;;;;;;;;;25.00;61.30;;;;;;5116737;28;19962;-60
2021/07/21 01:28:01;;;;;;;;;;;25.00;61.10;;;;;;5115695;28;20028;-60
2021/07/21 01:30:32;;;;;;;;;;;25.00;61.30;;;;;;5116049;28;20295;-61
2021/07/21 01:33:00;;;;;;;;;;;25.00;61.50;;;;;;5115923;28;19971;-61
2021/07/21 01:35:29;;;;;;;;;;;25.00;61.50;;;;;;5116253;28;19930;-61
2021/07/21 01:38:18;;;;;;;;;;;24.90;61.40;;;;;;5115899;28;19931;-61
2021/07/21 01:40:50;;;;;;;;;;;24.90;61.40;;;;;;5107970;28;20002;-61
2021/07/21 01:43:26;;;;;;;;;;;24.90;61.50;;;;;;5114398;28;20401;-61
2021/07/21 01:45:53;;;;;;;;;;;24.90;61.60;;;;;;5113266;28;19935;-61
2021/07/21 01:48:21;;;;;;;;;;;24.90;61.50;;;;;;5113830;28;19952;-61
2021/07/21 01:50:49;;;;;;;;;;;24.80;61.70;;;;;;5115765;28;20405;-61
2021/07/21 01:53:15;;;;;;;;;;;24.80;61.60;;;;;;5116018;28;20343;-61
2021/07/21 01:55:42;;;;;;;;;;;24.80;61.70;;;;;;5115353;28;20087;-61
2021/07/21 01:58:08;;;;;;;;;;;24.80;61.60;;;;;;5115979;28;20006;-61
2021/07/21 02:00:35;;;;;;;;;;;24.80;61.70;;;;;;5115529;28;20015;-61
2021/07/21 02:03:01;;;;;;;;;;;24.70;61.60;;;;;;5115726;28;19930;-61
2021/07/21 02:05:28;;;;;;;;;;;24.70;61.70;;;;;;5113860;28;19931;-61
2021/07/21 02:07:55;;;;;;;;;;;24.70;62.00;;;;;;5115411;28;19923;-61
2021/07/21 02:10:24;;;;;;;;;;;24.70;62.10;;;;;;5114968;28;20416;-61
2021/07/21 02:12:52;;;;;;;;;;;24.70;62.10;;;;;;5115500;28;19931;-61
2021/07/21 02:15:18;;;;;;;;;;;24.60;62.00;;;;;;5115484;28;20053;-61
2021/07/21 02:17:45;;;;;;;;;;;24.50;62.10;;;;;;5115177;28;19963;-61
2021/07/21 02:20:12;;;;;;;;;;;24.50;62.20;;;;;;5114267;28;19928;-61
2021/07/21 02:22:40;;;;;;;;;;;24.50;62.20;;;;;;5114796;28;20014;-62
2021/07/21 02:25:07;;;;;;;;;;;24.40;62.30;;;;;;5115120;28;19971;-61
2021/07/21 02:27:34;;;;;;;;;;;24.40;62.50;;;;;;5113685;28;19924;-61
2021/07/21 02:30:01;;;;;;;;;;;24.40;62.70;;;;;;5114708;28;19924;-61
2021/07/21 02:32:36;;;;;;;;;;;24.30;62.70;;;;;;5115236;28;19928;-62
2021/07/21 02:35:03;;;;;;;;;;;24.40;62.60;;;;;;5114821;28;19932;-61
2021/07/21 02:37:31;;;;;;;;;;;24.30;62.70;;;;;;5114769;28;19984;-61
2021/07/21 02:39:57;;;;;;;;;;;24.30;62.80;;;;;;5114806;28;19966;-61
2021/07/21 02:42:23;;;;;;;;;;;24.30;62.70;;;;;;5114982;28;19923;-61
2021/07/21 02:44:50;;;;;;;;;;;24.20;63.00;;;;;;5114309;28;19976;-61
2021/07/21 02:47:17;;;;;;;;;;;24.20;63.20;;;;;;5115115;28;19928;-61
2021/07/21 02:49:44;;;;;;;;;;;24.20;63.20;;;;;;5114721;28;19935;-61
2021/07/21 02:52:13;;;;;;;;;;;24.20;63.20;;;;;;5114505;28;19949;-61
2021/07/21 02:54:42;;;;;;;;;;;24.20;63.20;;;;;;5114624;28;19948;-61
2021/07/21 02:57:20;;;;;;;;;;;24.10;63.00;;;;;;5114321;28;20035;-61
2021/07/21 02:59:50;;;;;;;;;;;24.10;63.40;;;;;;5114017;28;20008;-61
2021/07/21 03:02:19;;;;;;;;;;;24.10;63.40;;;;;;5114568;28;19963;-61
2021/07/21 03:04:45;;;;;;;;;;;24.10;63.20;;;;;;5114593;28;20010;-61
2021/07/21 03:07:12;;;;;;;;;;;24.10;63.30;;;;;;5113989;28;20014;-61
2021/07/21 03:09:38;;;;;;;;;;;24.10;63.40;;;;;;5114311;28;20399;-61
2021/07/21 03:12:06;;;;;;;;;;;24.00;63.40;;;;;;5113877;28;19927;-61
2021/07/21 03:14:35;;;;;;;;;;;24.00;63.50;;;;;;5114268;28;20409;-61
2021/07/21 03:17:01;;;;;;;;;;;24.00;63.70;;;;;;5114222;28;19924;-61
2021/07/21 03:19:28;;;;;;;;;;;24.00;63.70;;;;;;5114130;28;19923;-61
2021/07/21 03:21:55;;;;;;;;;;;24.00;63.60;;;;;;5114271;28;19927;-61
2021/07/21 03:24:23;;;;;;;;;;;24.00;63.80;;;;;;5113527;28;19985;-60
2021/07/21 03:26:50;;;;;;;;;;;24.00;63.80;;;;;;5113559;28;19984;-61
2021/07/21 03:29:17;;;;;;;;;;;23.90;64.00;;;;;;5114048;28;19924;-60
2021/07/21 03:31:44;;;;;;;;;;;23.90;63.90;;;;;;5113637;28;20007;-61
2021/07/21 03:34:11;;;;;;;;;;;23.90;63.90;;;;;;5114012;28;20387;-61
2021/07/21 03:36:39;;;;;;;;;;;23.90;63.90;;;;;;5114107;28;19992;-61
2021/07/21 03:39:06;;;;;;;;;;;23.90;64.00;;;;;;5113268;28;20412;-61
2021/07/21 03:41:33;;;;;;;;;;;23.80;64.00;;;;;;5113454;28;20287;-61
2021/07/21 03:44:01;;;;;;;;;;;23.80;64.00;;;;;;5113706;28;19976;-61
2021/07/21 03:46:28;;;;;;;;;;;23.80;64.10;;;;;;5113484;28;20264;-61
2021/07/21 03:48:57;;;;;;;;;;;23.70;64.00;;;;;;5113517;28;19923;-61
2021/07/21 03:51:23;;;;;;;;;;;23.70;64.20;;;;;;5113893;28;20298;-61
2021/07/21 03:53:50;;;;;;;;;;;23.70;64.20;;;;;;5113437;28;20011;-61
2021/07/21 03:56:17;;;;;;;;;;;23.70;64.20;;;;;;5113298;28;19923;-61
2021/07/21 03:58:43;;;;;;;;;;;23.70;64.20;;;;;;5113592;28;20428;-61
2021/07/21 04:01:09;;;;;;;;;;;23.60;64.40;;;;;;5113758;28;19928;-61
2021/07/21 04:03:37;;;;;;;;;;;23.60;64.40;;;;;;5109282;28;20012;-60
2021/07/21 04:06:04;;;;;;;;;;;23.60;64.50;;;;;;5104424;28;19930;-61
2021/07/21 04:08:31;;;;;;;;;;;23.50;64.50;;;;;;5113025;28;19924;-61
2021/07/21 04:10:57;;;;;;;;;;;23.50;64.60;;;;;;5114723;27;19961;-61
2021/07/21 04:13:25;;;;;;;;;;;23.50;64.80;;;;;;5112949;28;20497;-61
2021/07/21 04:15:51;;;;;;;;;;;23.50;64.60;;;;;;5120492;27;20018;-61
2021/07/21 04:18:21;;;;;;;;;;;23.50;64.50;;;;;;5113266;28;19978;-61
2021/07/21 04:20:47;;;;;;;;;;;23.50;64.50;;;;;;5113513;28;20359;-61
2021/07/21 04:23:13;;;;;;;;;;;23.50;64.60;;;;;;5113360;28;19928;-61
2021/07/21 04:25:40;;;;;;;;;;;23.50;64.50;;;;;;5112726;28;20432;-61
2021/07/21 04:28:08;;;;;;;;;;;23.40;64.40;;;;;;5114316;28;19924;-61
2021/07/21 04:30:34;;;;;;;;;;;23.40;64.80;;;;;;5120710;28;19923;-61
2021/07/21 04:33:00;;;;;;;;;;;23.40;64.80;;;;;;5112771;28;19923;-61
2021/07/21 04:35:27;;;;;;;;;;;23.40;64.70;;;;;;5113374;28;20362;-61
2021/07/21 04:37:54;;;;;;;;;;;23.40;64.60;;;;;;5112930;28;20287;-68
2021/07/21 04:40:21;;;;;;;;;;;23.40;64.30;;;;;;5112708;28;19931;-68
2021/07/21 04:42:47;;;;;;;;;;;23.50;64.30;;;;;;5112684;28;19969;-67
2021/07/21 04:45:14;;;;;;;;;;;23.50;64.40;;;;;;5116509;28;19932;-66
2021/07/21 04:47:40;;;;;;;;;;;23.40;64.20;;;;;;5107921;28;20040;-67
2021/07/21 04:50:08;;;;;;;;;;;23.50;64.30;;;;;;5116522;28;19976;-67
2021/07/21 04:52:35;;;;;;;;;;;23.50;64.20;;;;;;5117047;28;19924;-66
2021/07/21 04:55:01;;;;;;;;;;;23.40;64.00;;;;;;5116614;28;19923;-67
2021/07/21 04:57:27;;;;;;;;;;;23.40;64.10;;;;;;5118727;27;19923;-66
2021/07/21 04:59:53;;;;;;;;;;;23.40;63.90;;;;;;5120599;27;19932;-65
2021/07/21 05:02:19;;;;;;;;;;;23.40;64.10;;;;;;5117054;28;19924;-65
2021/07/21 05:04:45;;;;;;;;;;;23.50;63.90;;;;;;5116475;28;20010;-65
2021/07/21 05:07:13;;;;;;;;;;;23.40;63.80;;;;;;5116589;28;20006;-68
2021/07/21 05:09:39;;;;;;;;;;;23.40;63.80;;;;;;5118980;27;19931;-68
2021/07/21 05:12:05;;;;;;;;;;;23.50;63.80;;;;;;5116467;28;19999;-67
2021/07/21 05:14:32;;;;;;;;;;;23.50;63.50;;;;;;5116653;28;20020;-68
2021/07/21 05:16:58;;;;;;;;;;;23.50;63.40;;;;;;5116618;28;20010;-67
2021/07/21 05:19:24;;;;;;;;;;;23.40;63.50;;;;;;5116800;28;19931;-67
2021/07/21 05:21:52;;;;;;;;;;;23.40;63.50;;;;;;5120967;27;20022;-68
2021/07/21 05:24:19;;;;;;;;;;;23.40;63.60;;;;;;5118655;27;19923;-67
2021/07/21 05:26:47;;;;;;;;;;;23.40;63.70;;;;;;5116250;28;20060;-67
2021/07/21 05:29:13;;;;;;;;;;;23.50;63.70;;;;;;5115460;28;19962;-68
2021/07/21 05:31:40;;;;;;;;;;;23.50;63.70;;;;;;5116363;28;19924;-68
2021/07/21 05:34:06;;;;;;;;;;;23.50;63.30;;;;;;5116333;28;20011;-67
2021/07/21 05:36:36;;;;;;;;;;;23.50;63.40;;;;;;5115986;28;20415;-67
2021/07/21 05:39:06;;;;;;;;;;;23.50;63.50;;;;;;5122101;27;19923;-67
2021/07/21 05:41:32;;;;;;;;;;;23.60;63.70;;;;;;5119140;27;19931;-67
2021/07/21 05:43:59;;;;;;;;;;;23.60;63.30;;;;;;5135601;27;19923;-66
2021/07/21 05:46:25;;;;;;;;;;;23.60;63.10;;;;;;5135141;27;20322;-67
2021/07/21 05:48:51;;;;;;;;;;;23.70;63.30;;;;;;5127330;27;19934;-67
2021/07/21 05:51:17;;;;;;;;;;;23.70;63.20;;;;;;5120154;27;20018;-67
2021/07/21 05:53:43;;;;;;;;;;;23.70;63.20;;;;;;5115951;28;19923;-70
2021/07/21 05:56:13;;;;;;;;;;;23.70;63.20;;;;;;5115697;28;20430;-69
2021/07/21 05:58:39;;;;;;;;;;;23.70;63.50;;;;;;5107868;27;19923;-68
2021/07/21 06:01:05;;;;;;;;;;;23.80;63.30;;;;;;5133043;27;19924;-68
2021/07/21 06:03:31;;;;;;;;;;;23.90;63.10;;;;;;5131419;27;20002;-68
2021/07/21 06:05:58;;;;;;;;;;;23.90;63.10;;;;;;5125474;27;19924;-68
2021/07/21 06:08:24;;;;;;;;;;;24.00;63.00;;;;;;5127765;27;20399;-68
2021/07/21 06:10:50;;;;;;;;;;;24.00;62.50;;;;;;5115076;28;20451;-69
2021/07/21 06:13:16;;;;;;;;;;;24.10;62.20;;;;;;5109417;27;20318;-68
2021/07/21 06:15:43;;;;;;;;;;;24.10;62.20;;;;;;5111320;28;19980;-67
2021/07/21 06:18:09;;;;;;;;;;;24.20;61.50;;;;;;5105771;28;20402;-68
2021/07/21 06:20:36;;;;;;;;;;;24.20;61.60;;;;;;5111651;28;19927;-67
2021/07/21 06:23:02;;;;;;;;;;;24.20;61.60;;;;;;5100991;28;19979;-67
2021/07/21 06:25:29;;;;;;;;;;;24.30;61.70;;;;;;5111357;27;20033;-67
2021/07/21 06:27:55;;;;;;;;;;;24.40;61.90;;;;;;5110706;28;19969;-67
2021/07/21 06:30:22;;;;;;;;;;;24.40;60.30;;;;;;5111366;28;19995;-68
2021/07/21 06:32:50;;;;;;;;;;;24.50;60.30;;;;;;5110718;28;19931;-68
2021/07/21 06:35:20;;;;;;;;;;;24.50;59.30;;;;;;5129403;27;20056;-68
2021/07/21 06:37:47;;;;;;;;;;;24.60;59.50;;;;;;5129132;27;20425;-68
2021/07/21 06:40:14;;;;;;;;;;;24.60;59.30;;;;;;5130955;27;20019;-68
2021/07/21 06:42:40;;;;;;;;;;;24.60;59.60;;;;;;5115048;27;19932;-68
2021/07/21 06:45:06;;;;;;;;;;;24.70;59.10;;;;;;5111113;28;19985;-69
2021/07/21 06:47:33;;;;;;;;;;;24.70;58.30;;;;;;5092280;28;19928;-68
2021/07/21 06:49:59;;;;;;;;;;;24.70;58.30;;;;;;5110812;28;19935;-68
2021/07/21 06:52:25;;;;;;;;;;;24.80;58.30;;;;;;5110519;28;19928;-68
2021/07/21 06:54:52;;;;;;;;;;;24.80;57.50;;;;;;5110977;28;19932;-72
2021/07/21 06:57:18;;;;;;;;;;;24.90;57.80;;;;;;5109655;27;19942;-70
2021/07/21 06:59:45;;;;;;;;;;;24.90;57.00;;;;;;5111101;27;19949;-69
2021/07/21 07:02:11;;;;;;;;;;;24.90;56.50;;;;;;5109075;27;20026;-69
2021/07/21 07:04:37;;;;;;;;;;;24.80;56.70;;;;;;5097555;28;19928;-69
2021/07/21 07:07:03;;;;;;;;;;;24.80;57.10;;;;;;5103392;28;20307;-66
2021/07/21 07:09:30;;;;;;;;;;;24.80;56.00;;;;;;5109912;28;19976;-65
2021/07/21 07:11:56;;;;;;;;;;;24.80;56.60;;;;;;5104497;28;19927;-65
2021/07/21 07:14:22;;;;;;;;;;;24.80;56.90;;;;;;5110222;27;19928;-66
2021/07/21 07:16:49;;;;;;;;;;;25.00;56.70;;;;;;5091724;28;20326;-65
2021/07/21 07:19:15;;;;;;;;;;;25.10;55.50;;;;;;5109680;28;19928;-67
2021/07/21 07:21:42;;;;;;;;;;;25.10;55.20;;;;;;5101823;28;19928;-65
2021/07/21 07:24:09;;;;;;;;;;;25.20;54.20;;;;;;5105882;28;19927;-66
2021/07/21 07:26:35;;;;;;;;;;;25.30;54.00;;;;;;5104024;28;20014;-66
2021/07/21 07:29:02;;;;;;;;;;;25.30;53.90;;;;;;5123309;27;19927;-65
2021/07/21 07:31:28;;;;;;;;;;;25.40;53.70;;;;;;5097587;28;19959;-66
2021/07/21 07:33:54;;;;;;;;;;;25.50;53.70;;;;;;5110305;28;19928;-65
2021/07/21 07:36:20;;;;;;;;;;;25.60;53.10;;;;;;5110017;28;19927;-65
2021/07/21 07:38:46;;;;;;;;;;;25.60;53.70;;;;;;5110160;27;19931;-65
2021/07/21 07:41:13;;;;;;;;;;;25.60;52.80;;;;;;5109279;28;19935;-65
2021/07/21 07:43:40;;;;;;;;;;;25.70;53.30;;;;;;5109520;28;19928;-67
2021/07/21 07:46:06;;;;;;;;;;;25.90;53.00;;;;;;5109630;28;20565;-65
2021/07/21 07:48:33;;;;;;;;;;;26.10;53.60;;;;;;5108836;28;19928;-65
2021/07/21 07:50:59;;;;;;;;;;;26.40;52.60;;;;;;5109737;28;19928;-66
2021/07/21 07:53:25;;;;;;;;;;;26.60;51.60;;;;;;5112918;27;20398;-66
2021/07/21 07:55:51;;;;;;;;;;;26.70;50.00;;;;;;5109822;28;20007;-66
2021/07/21 07:58:18;;;;;;;;;;;26.80;49.50;;;;;;5108994;28;20069;-67
2021/07/21 08:00:44;;;;;;;;;;;26.80;50.10;;;;;;5109526;28;20477;-66
2021/07/21 08:03:10;;;;;;;;;;;26.90;50.60;;;;;;5109337;27;19928;-66
2021/07/21 08:05:37;;;;;;;;;;;27.00;50.60;;;;;;5107861;28;20032;-65
2021/07/21 08:08:03;;;;;;;;;;;27.10;50.30;;;;;;5110546;27;20427;-66
2021/07/21 08:10:30;;;;;;;;;;;27.30;49.50;;;;;;5109105;28;20011;-66
2021/07/21 08:12:56;;;;;;;;;;;27.50;48.90;;;;;;5108778;28;20065;-67
2021/07/21 08:15:22;;;;;;;;;;;27.70;48.90;;;;;;5116259;27;19927;-67
2021/07/21 08:17:49;;;;;;;;;;;27.90;48.80;;;;;;5113149;27;19924;-66
2021/07/21 08:20:15;;;;;;;;;;;28.10;47.10;;;;;;5112858;28;19928;-66
2021/07/21 08:22:41;;;;;;;;;;;28.20;47.30;;;;;;5108803;28;19927;-66
2021/07/21 08:25:08;;;;;;;;;;;28.20;46.40;;;;;;5109442;28;20019;-66
2021/07/21 08:27:34;;;;;;;;;;;28.10;46.00;;;;;;5108753;28;20505;-65
2021/07/21 08:30:01;;;;;;;;;;;28.10;46.20;;;;;;5109265;28;19927;-65
2021/07/21 08:32:27;;;;;;;;;;;28.10;46.40;;;;;;5101170;28;20709;-65
2021/07/21 08:34:53;;;;;;;;;;;28.20;46.30;;;;;;5109441;28;19934;-65
2021/07/21 08:37:19;;;;;;;;;;;28.50;46.50;;;;;;5100590;28;19932;-66
2021/07/21 08:39:45;;;;;;;;;;;28.70;45.00;;;;;;5097747;28;19935;-65
2021/07/21 08:42:12;;;;;;;;;;;28.70;44.70;;;;;;5099715;28;20403;-66
2021/07/21 08:44:38;;;;;;;;;;;28.80;44.40;;;;;;5108821;28;20038;-65
2021/07/21 08:47:08;;;;;;;;;;;28.70;43.80;;;;;;5108903;28;19935;-65
2021/07/21 08:49:35;;;;;;;;;;;28.70;44.80;;;;;;5108669;28;20367;-66
2021/07/21 08:52:01;;;;;;;;;;;28.60;44.50;;;;;;5107990;28;19957;-66
2021/07/21 08:54:27;;;;;;;;;;;28.50;44.60;;;;;;5108966;28;20383;-66
2021/07/21 08:56:56;;;;;;;;;;;28.70;45.20;;;;;;5106878;28;19976;-66
2021/07/21 08:59:23;;;;;;;;;;;28.80;44.20;;;;;;5108717;28;19988;-66
2021/07/21 09:01:49;;;;;;;;;;;28.80;42.10;;;;;;5105600;28;19974;-66
2021/07/21 09:04:15;;;;;;;;;;;28.80;44.60;;;;;;5108608;28;20010;-66
2021/07/21 09:06:42;;;;;;;;;;;29.20;43.40;;;;;;5101146;28;19980;-66
2021/07/21 09:09:08;;;;;;;;;;;29.40;41.90;;;;;;5108684;28;20400;-66
2021/07/21 09:11:35;;;;;;;;;;;29.60;42.10;;;;;;5104381;28;19935;-66
2021/07/21 09:14:02;;;;;;;;;;;29.90;42.10;;;;;;5108532;28;19996;-66
2021/07/21 09:16:28;;;;;;;;;;;30.30;42.00;;;;;;5104512;28;19928;-67
2021/07/21 09:18:56;;;;;;;;;;;30.40;39.70;;;;;;5103167;28;19927;-66
2021/07/21 09:21:22;;;;;;;;;;;30.30;40.20;;;;;;5087597;28;19928;-66
2021/07/21 09:23:50;;;;;;;;;;;30.40;39.20;;;;;;5101207;28;19928;-66
2021/07/21 09:26:18;;;;;;;;;;;30.20;38.30;;;;;;5106838;28;19928;-66
2021/07/21 09:28:44;;;;;;;;;;;30.30;38.80;;;;;;5105106;28;19927;-66
2021/07/21 09:31:15;;;;;;;;;;;30.40;39.00;;;;;;5111234;28;20291;-66
2021/07/21 09:33:45;;;;;;;;;;;30.50;37.80;;;;;;5112953;28;20401;-66
2021/07/21 09:36:19;;;;;;;;;;;30.60;38.30;;;;;;5112215;28;19934;-66
2021/07/21 09:38:46;;;;;;;;;;;30.70;38.50;;;;;;5113840;27;20006;-66
2021/07/21 09:41:13;;;;;;;;;;;31.00;38.30;;;;;;5111014;28;20002;-66
2021/07/21 09:43:39;;;;;;;;;;;31.50;38.20;;;;;;5114863;27;19981;-66
2021/07/21 09:46:09;;;;;;;;;;;32.00;36.40;;;;;;5111817;28;19935;-66
2021/07/21 09:48:35;;;;;;;;;;;32.00;37.10;;;;;;5112051;28;20014;-66
2021/07/21 09:51:01;;;;;;;;;;;32.30;35.80;;;;;;5112161;28;19972;-66
2021/07/21 09:53:35;;;;;;;;;;;32.40;35.30;;;;;;5115950;27;20000;-66
2021/07/21 09:56:01;;;;;;;;;;;32.40;35.10;;;;;;5112296;28;20014;-66
2021/07/21 09:58:31;;;;;;;;;;;32.40;35.30;;;;;;5111519;28;20012;-66
2021/07/21 10:00:57;;;;;;;;;;;32.30;35.10;;;;;;5111527;27;19928;-66
2021/07/21 10:03:24;;;;;;;;;;;31.80;36.50;;;;;;5117009;27;20402;-66
2021/07/21 10:06:01;;;;;;;;;;;31.80;36.10;;;;;;5111297;28;20019;-67
2021/07/21 10:08:37;;;;;;;;;;;31.90;36.50;;;;;;5118010;27;19935;-66
2021/07/21 10:11:20;;;;;;;;;;;32.00;36.50;;;;;;5111767;28;19923;-66
2021/07/21 10:13:47;;;;;;;;;;;32.10;36.00;;;;;;5121418;27;20477;-66
2021/07/21 10:16:29;;;;;;;;;;;31.80;36.80;;;;;;5111166;28;20414;-66
2021/07/21 10:19:02;;;;;;;;;;;31.80;37.30;;;;;;5124119;27;19927;-66
2021/07/21 10:21:28;;;;;;;;;;;31.80;36.90;;;;;;5111365;28;20019;-67
2021/07/21 10:23:56;;;;;;;;;;;32.00;37.40;;;;;;5111207;28;19923;-67
2021/07/21 10:26:22;;;;;;;;;;;32.20;37.30;;;;;;5097094;28;19927;-66
2021/07/21 10:28:48;;;;;;;;;;;32.70;37.90;;;;;;5110566;28;19992;-66
2021/07/21 10:31:15;;;;;;;;;;;33.30;35.70;;;;;;5111363;28;19970;-67
2021/07/21 10:33:41;;;;;;;;;;;33.50;34.30;;;;;;5109304;28;20384;-66
2021/07/21 10:36:09;;;;;;;;;;;32.90;34.70;;;;;;5114891;27;19933;-66
2021/07/21 10:38:36;;;;;;;;;;;32.40;36.30;;;;;;5111075;28;19935;-66
2021/07/21 10:41:03;;;;;;;;;;;31.90;37.60;;;;;;5109091;28;19969;-66
2021/07/21 10:43:29;;;;;;;;;;;31.40;37.80;;;;;;5112827;27;20024;-66
2021/07/21 10:45:55;;;;;;;;;;;31.10;40.00;;;;;;5110923;28;19928;-66
2021/07/21 10:48:40;;;;;;;;;;;31.00;40.00;;;;;;5110070;27;20309;-67
2021/07/21 10:51:16;;;;;;;;;;;31.00;38.90;;;;;;5110938;28;19974;-67
2021/07/21 10:53:57;;;;;;;;;;;30.90;38.70;;;;;;5102308;28;19927;-66
2021/07/21 10:59:11;;;;;;;;;;;30.70;39.10;;;;;;5110312;28;20596;-66
2021/07/21 11:01:41;;;;;;;;;;;30.70;38.80;;;;;;5110252;28;20045;-66
2021/07/21 11:04:07;;;;;;;;;;;30.60;39.90;;;;;;5116614;27;19927;-66
2021/07/21 11:06:37;;;;;;;;;;;30.60;39.10;;;;;;5104620;28;19947;-66
2021/07/21 11:09:13;;;;;;;;;;;30.60;38.50;;;;;;5117209;27;19928;-66
2021/07/21 11:11:39;;;;;;;;;;;30.50;40.00;;;;;;5110134;28;19927;-66
2021/07/21 11:14:08;;;;;;;;;;;30.60;38.70;;;;;;5121901;27;21219;-67
2021/07/21 11:16:41;;;;;;;;;;;30.70;39.60;;;;;;5110365;28;20509;-66
2021/07/21 11:19:27;;;;;;;;;;;30.70;39.10;;;;;;5122259;27;20009;-66
2021/07/21 11:22:01;;;;;;;;;;;30.80;39.00;;;;;;5104309;27;19927;-67
2021/07/21 11:24:28;;;;;;;;;;;30.90;38.20;;;;;;5126112;27;20365;-66
2021/07/21 11:26:55;;;;;;;;;;;30.70;39.30;;;;;;5109582;28;19928;-66
2021/07/21 11:29:24;;;;;;;;;;;30.50;38.80;;;;;;5110099;28;19948;-66
2021/07/21 11:31:50;;;;;;;;;;;30.40;39.10;;;;;;5109810;28;19934;-67
2021/07/21 11:34:29;;;;;;;;;;;30.20;39.50;;;;;;5110385;28;19942;-67
2021/07/21 11:37:01;;;;;;;;;;;30.10;40.00;;;;;;5111635;27;20744;-67
2021/07/21 11:39:30;;;;;;;;;;;30.00;39.80;;;;;;5101264;27;19975;-69
2021/07/21 11:41:57;;;;;;;;;;;29.90;40.40;;;;;;5108732;28;20052;-69
2021/07/21 11:44:32;;;;;;;;;;;29.80;40.40;;;;;;5109557;28;19927;-69
2021/07/21 11:46:59;;;;;;;;;;;29.80;41.00;;;;;;5109609;28;19931;-69
2021/07/21 11:49:27;;;;;;;;;;;29.80;41.80;;;;;;5110078;27;19928;-70
2021/07/21 11:52:04;;;;;;;;;;;29.90;42.80;;;;;;5096435;28;20064;-70
2021/07/21 11:54:31;;;;;;;;;;;30.10;41.50;;;;;;5113363;27;19931;-70
2021/07/21 11:56:58;;;;;;;;;;;30.30;41.90;;;;;;5099780;28;19932;-69
2021/07/21 11:59:34;;;;;;;;;;;30.40;40.10;;;;;;5114356;27;20022;-69
2021/07/21 12:02:05;;;;;;;;;;;30.40;41.10;;;;;;5109473;28;20006;-70
2021/07/21 12:04:31;;;;;;;;;;;30.40;41.50;;;;;;5114846;27;19935;-69
2021/07/21 12:06:57;;;;;;;;;;;30.40;41.00;;;;;;5103344;28;20022;-70
2021/07/21 12:09:34;;;;;;;;;;;30.50;40.30;;;;;;5118033;27;19924;-70
2021/07/21 12:12:02;;;;;;;;;;;30.60;42.10;;;;;;5109158;28;20409;-70
2021/07/21 12:14:28;;;;;;;;;;;30.70;40.10;;;;;;5121346;27;19939;-70
2021/07/21 12:17:01;;;;;;;;;;;30.80;39.00;;;;;;5109015;28;19934;-70
2021/07/21 12:19:28;;;;;;;;;;;30.80;39.60;;;;;;5120807;27;19931;-70
2021/07/21 12:22:01;;;;;;;;;;;30.70;39.10;;;;;;5109277;28;19943;-70
2021/07/21 12:24:30;;;;;;;;;;;30.60;39.70;;;;;;5108709;28;20035;-69
2021/07/21 12:26:56;;;;;;;;;;;30.50;40.30;;;;;;5108757;28;19935;-70
2021/07/21 12:29:26;;;;;;;;;;;30.50;39.40;;;;;;5109055;28;19980;-70
2021/07/21 12:32:01;;;;;;;;;;;30.40;40.40;;;;;;5103446;28;19928;-70
2021/07/21 12:34:27;;;;;;;;;;;30.40;41.90;;;;;;5107566;28;20633;-70
2021/07/21 12:36:54;;;;;;;;;;;30.40;41.00;;;;;;5090570;28;20006;-69
2021/07/21 12:39:24;;;;;;;;;;;30.60;39.40;;;;;;5108710;28;19928;-70
2021/07/21 12:41:50;;;;;;;;;;;30.60;39.20;;;;;;5108612;28;19931;-69
2021/07/21 12:44:18;;;;;;;;;;;30.60;39.90;;;;;;5111442;28;20622;-69
2021/07/21 12:46:44;;;;;;;;;;;30.60;40.30;;;;;;5104842;28;19928;-70
2021/07/21 12:49:11;;;;;;;;;;;30.70;40.30;;;;;;5104116;28;20299;-70
2021/07/21 12:51:37;;;;;;;;;;;30.70;40.00;;;;;;5105167;28;19932;-70
2021/07/21 12:54:04;;;;;;;;;;;30.90;38.80;;;;;;5103019;28;19983;-70
2021/07/21 12:56:30;;;;;;;;;;;30.90;38.60;;;;;;5109063;28;20136;-69
2021/07/21 12:59:09;;;;;;;;;;;30.90;39.20;;;;;;5108842;28;19935;-70
2021/07/21 13:01:35;;;;;;;;;;;30.90;39.60;;;;;;5107355;28;19981;-69
2021/07/21 13:04:01;;;;;;;;;;;30.80;39.30;;;;;;5109054;28;19935;-69
2021/07/21 13:06:28;;;;;;;;;;;30.80;40.10;;;;;;5103392;28;20001;-69
2021/07/21 13:08:54;;;;;;;;;;;30.90;40.10;;;;;;5112440;28;19973;-70
2021/07/21 13:11:21;;;;;;;;;;;30.90;38.50;;;;;;5111796;28;19928;-70
2021/07/21 13:13:50;;;;;;;;;;;30.90;38.50;;;;;;5111160;28;19928;-70
2021/07/21 13:16:22;;;;;;;;;;;30.80;38.20;;;;;;5111703;28;20008;-69
2021/07/21 13:18:49;;;;;;;;;;;30.70;38.70;;;;;;5102017;28;20544;-70
2021/07/21 13:21:32;;;;;;;;;;;30.60;38.60;;;;;;5097673;28;19977;-70
2021/07/21 13:24:06;;;;;;;;;;;30.50;40.00;;;;;;5106997;27;19935;-70
2021/07/21 13:26:33;;;;;;;;;;;30.50;39.70;;;;;;5110505;28;19924;-70
2021/07/21 13:29:04;;;;;;;;;;;30.50;40.50;;;;;;5110509;28;19974;-70
2021/07/21 13:31:35;;;;;;;;;;;30.50;40.40;;;;;;5098720;28;19967;-70
2021/07/21 13:34:02;;;;;;;;;;;30.60;38.50;;;;;;5113384;27;19963;-69
2021/07/21 13:36:37;;;;;;;;;;;30.60;39.60;;;;;;5111964;28;20386;-70
2021/07/21 13:39:04;;;;;;;;;;;30.50;38.20;;;;;;5114029;27;19927;-70
2021/07/21 13:41:36;;;;;;;;;;;30.50;38.60;;;;;;5110568;28;19927;-70
2021/07/21 13:44:04;;;;;;;;;;;30.50;39.80;;;;;;5114349;27;19928;-69
2021/07/21 13:46:32;;;;;;;;;;;30.50;39.30;;;;;;5112019;28;19928;-69
2021/07/21 13:48:59;;;;;;;;;;;30.50;39.00;;;;;;5112126;28;20018;-70
2021/07/21 13:51:33;;;;;;;;;;;30.40;39.20;;;;;;5111556;28;20022;-69
2021/07/21 13:54:09;;;;;;;;;;;30.50;38.80;;;;;;5116417;27;19947;-69
2021/07/21 13:56:36;;;;;;;;;;;30.60;39.90;;;;;;5112111;28;20034;-70
2021/07/21 13:59:03;;;;;;;;;;;30.70;39.40;;;;;;5111727;27;20287;-70
2021/07/21 14:01:29;;;;;;;;;;;30.80;40.60;;;;;;5111740;28;19983;-70
2021/07/21 14:03:59;;;;;;;;;;;30.80;39.10;;;;;;5117887;27;19931;-70
2021/07/21 14:06:26;;;;;;;;;;;30.70;39.30;;;;;;5104400;28;20013;-69
2021/07/21 14:08:53;;;;;;;;;;;30.60;38.50;;;;;;5111132;27;20097;-71
2021/07/21 14:11:19;;;;;;;;;;;30.50;40.00;;;;;;5111276;28;19976;-71
2021/07/21 14:13:45;;;;;;;;;;;30.60;39.70;;;;;;5111444;28;19928;-69
2021/07/21 14:16:11;;;;;;;;;;;30.60;39.20;;;;;;5111385;28;19972;-69
2021/07/21 14:18:37;;;;;;;;;;;30.60;39.80;;;;;;5122462;27;19939;-69
2021/07/21 14:21:03;;;;;;;;;;;30.50;40.40;;;;;;5112854;27;19927;-70
2021/07/21 14:23:30;;;;;;;;;;;30.50;41.00;;;;;;5122303;27;20438;-69